Fantasia — ICJY — position and weather

sailwx.info

Track history (hours):
 
Tides and Currents Weather Stations Pressure Air Temp Water Temp Dewpoint Dewpoint Depression Visibility Wind Speed Wind Dir Waves Ship Positions

Fantasia

Last reported at 2014-Sep-19 14:04 UTC. Time now 2014-Sep-19 17:59 UTC.
Position N 38°02' E 010°56'.

Length 183 m; draft 10.2 m.

Type: Tanker. MMSI: 247279600.

Date/timePositionNaut miles runAvg speedWind from/ knotsBaromVisibWave heightAir tempDewpointWater temp
2014-Sep-19 14:04N 38°02' E 010°56'611.8
2014-Sep-19 13:33N 38°04' E 010°49'1512.4
2014-Sep-19 12:21N 38°09' E 010°31'1012.8
2014-Sep-19 11:33N 38°13' E 010°19'1312.5
2014-Sep-19 10:33N 38°17' E 010°04'1212.4
2014-Sep-19 09:33N 38°21' E 009°49'1212.3
2014-Sep-19 08:33N 38°25' E 009°34'1212.1
2014-Sep-19 07:32N 38°30' E 009°20'1212.2
2014-Sep-19 06:33N 38°34' E 009°05'1212.0
2014-Sep-19 05:33N 38°38' E 008°50'1212.1
2014-Sep-19 04:33N 38°42' E 008°36'1212.2
2014-Sep-19 03:33N 38°46' E 008°21'1612.2
2014-Sep-19 02:15N 38°52' E 008°02'1012.2
2014-Sep-19 01:23N 38°57' E 007°50'1511.5
2014-Sep-19 00:04N 39°02' E 007°32'10512.1
2014-Sep-18 15:25N 39°44' E 005°28'10912.2
2014-Sep-18 06:27N 40°26' E 003°16'  
2014-Sep-13 21:33N 40°44' E 001°07'1614.8
2014-Sep-13 20:27N 40°28' E 001°03'1213.7
2014-Sep-13 19:33N 40°16' E 000°60'1414.4
2014-Sep-13 18:33N 40°02' E 000°56'1413.8
2014-Sep-13 17:33N 39°48' E 000°52'3114.0
2014-Sep-13 15:21N 39°19' E 000°41'1114.0
2014-Sep-13 14:32N 39°08' E 000°37'4113.8
2014-Sep-13 11:33N 38°30' E 000°17'1313.6
2014-Sep-13 10:33N 38°18' E 000°08'1513.9
2014-Sep-13 09:29N 38°06' W 000°03'1313.9
2014-Sep-13 08:31N 37°55' W 000°12'1313.8
2014-Sep-13 07:33N 37°44' W 000°22'1413.6
2014-Sep-13 06:33N 37°33' W 000°31'1313.5
2014-Sep-13 05:34N 37°23' W 000°44'1413.8
2014-Sep-13 04:33N 37°14' W 000°57'1413.6
2014-Sep-13 03:32N 37°05' W 001°10'1313.7
2014-Sep-13 02:33N 36°56' W 001°22'1413.4
2014-Sep-13 01:33N 36°47' W 001°35'1413.6
2014-Sep-13 00:33N 36°38' W 001°48'  
2014-Sep-10 15:33N 36°08' W 005°18'0 0.0
2014-Sep-10 14:21N 36°08' W 005°18'4 4.4
2014-Sep-10 13:32N 36°06' W 005°21'5 0.6
2014-Sep-10 05:33N 36°01' W 005°22'  
Track history (hours):
 
Tides and Currents Weather Stations Pressure Air Temp Water Temp Dewpoint Dewpoint Depression Visibility Wind Speed Wind Dir Waves Ship Positions

Fantasia

Last reported at 2014-Sep-19 14:04 UTC. Time now 2014-Sep-19 17:59 UTC.
Position N 38°02' E 010°56'.

Length 183 m; draft 10.2 m.

Type: Tanker. MMSI: 247279600.

Date/timePositionNaut miles runAvg speedWind from/ knotsBaromVisibWave heightAir tempDewpointWater temp
2014-Sep-19 14:04N 38°02' E 010°56'611.8
2014-Sep-19 13:33N 38°04' E 010°49'1512.4
2014-Sep-19 12:21N 38°09' E 010°31'1012.8
2014-Sep-19 11:33N 38°13' E 010°19'1312.5
2014-Sep-19 10:33N 38°17' E 010°04'1212.4
2014-Sep-19 09:33N 38°21' E 009°49'1212.3
2014-Sep-19 08:33N 38°25' E 009°34'1212.1
2014-Sep-19 07:32N 38°30' E 009°20'1212.2
2014-Sep-19 06:33N 38°34' E 009°05'1212.0
2014-Sep-19 05:33N 38°38' E 008°50'1212.1
2014-Sep-19 04:33N 38°42' E 008°36'1212.2
2014-Sep-19 03:33N 38°46' E 008°21'1612.2
2014-Sep-19 02:15N 38°52' E 008°02'1012.2
2014-Sep-19 01:23N 38°57' E 007°50'1511.5
2014-Sep-19 00:04N 39°02' E 007°32'10512.1
2014-Sep-18 15:25N 39°44' E 005°28'10912.2
2014-Sep-18 06:27N 40°26' E 003°16'  
2014-Sep-13 21:33N 40°44' E 001°07'1614.8
2014-Sep-13 20:27N 40°28' E 001°03'1213.7
2014-Sep-13 19:33N 40°16' E 000°60'1414.4
2014-Sep-13 18:33N 40°02' E 000°56'1413.8
2014-Sep-13 17:33N 39°48' E 000°52'3114.0
2014-Sep-13 15:21N 39°19' E 000°41'1114.0
2014-Sep-13 14:32N 39°08' E 000°37'4113.8
2014-Sep-13 11:33N 38°30' E 000°17'1313.6
2014-Sep-13 10:33N 38°18' E 000°08'1513.9
2014-Sep-13 09:29N 38°06' W 000°03'1313.9
2014-Sep-13 08:31N 37°55' W 000°12'1313.8
2014-Sep-13 07:33N 37°44' W 000°22'1413.6
2014-Sep-13 06:33N 37°33' W 000°31'1313.5
2014-Sep-13 05:34N 37°23' W 000°44'1413.8
2014-Sep-13 04:33N 37°14' W 000°57'1413.6
2014-Sep-13 03:32N 37°05' W 001°10'1313.7
2014-Sep-13 02:33N 36°56' W 001°22'1413.4
2014-Sep-13 01:33N 36°47' W 001°35'1413.6
2014-Sep-13 00:33N 36°38' W 001°48'  
2014-Sep-10 15:33N 36°08' W 005°18'0 0.0
2014-Sep-10 14:21N 36°08' W 005°18'4 4.4
2014-Sep-10 13:32N 36°06' W 005°21'5 0.6
2014-Sep-10 05:33N 36°01' W 005°22'  

Dump ship's entire track history